Time;durP1;ratioP1;P1;durP2;ratioP2;P2;SDS_P1;SDS_P2;PMS_P1;PMS_P2;Temp;Humidity;BMP_temperature;BMP_pressure;BME280_temperature;BME280_humidity;BME280_pressure;Samples;Min_cycle;Max_cycle;Signal;HPM_P1;HPM_P2
2022/07/16 00:03:03;;;;;;;;;7.00;6.00;;;;;23.55;42.55;100999.64;110500;1260;21645;-64
2022/07/16 00:05:30;;;;;;;;;5.67;5.33;;;;;23.54;42.51;100998.30;110474;1261;20820;-63
2022/07/16 00:07:57;;;;;;;;;6.33;6.00;;;;;23.54;42.51;100993.27;110469;1260;18455;-63
2022/07/16 00:10:25;;;;;;;;;7.00;7.00;;;;;23.56;42.49;100995.31;110498;1261;18892;-63
2022/07/16 00:12:53;;;;;;;;;5.00;5.00;;;;;23.56;42.51;100990.56;110474;1261;19840;-63
2022/07/16 00:15:20;;;;;;;;;7.00;7.00;;;;;23.56;42.46;100996.23;110520;1260;18656;-63
2022/07/16 00:17:47;;;;;;;;;7.00;7.00;;;;;23.56;42.43;100992.75;110492;1261;22714;-64
2022/07/16 00:20:14;;;;;;;;;7.67;7.00;;;;;23.55;42.53;100992.28;110481;1259;19646;-64
2022/07/16 00:22:42;;;;;;;;;7.33;7.00;;;;;23.55;42.29;100986.26;110418;1260;19038;-62
2022/07/16 00:25:09;;;;;;;;;7.00;7.00;;;;;23.56;42.46;100991.06;110456;1259;19177;-63
2022/07/16 00:27:36;;;;;;;;;7.00;7.00;;;;;23.57;42.45;100991.91;110519;1260;19656;-62
2022/07/16 00:30:03;;;;;;;;;7.00;7.00;;;;;23.57;42.46;100987.87;110476;1261;22332;-63
2022/07/16 00:32:31;;;;;;;;;5.67;5.67;;;;;23.56;42.44;100987.73;110377;1259;18744;-62
2022/07/16 00:34:58;;;;;;;;;7.50;7.00;;;;;23.56;42.40;100985.55;110464;1261;19609;-63
2022/07/16 00:37:25;;;;;;;;;7.33;6.33;;;;;23.57;42.43;100988.59;110438;1260;18920;-62
2022/07/16 00:39:53;;;;;;;;;5.33;5.33;;;;;23.57;42.40;100988.72;110516;1260;18821;-64
2022/07/16 00:42:20;;;;;;;;;7.00;7.00;;;;;23.59;42.34;100986.53;110529;1261;19554;-64
2022/07/16 00:44:47;;;;;;;;;6.67;6.33;;;;;23.58;42.36;100985.02;110491;1260;18471;-64
2022/07/16 00:47:14;;;;;;;;;8.00;7.00;;;;;23.58;42.45;100981.56;110450;1261;19017;-64
2022/07/16 00:49:41;;;;;;;;;7.00;6.00;;;;;23.57;42.51;100976.76;110453;1260;19739;-62
2022/07/16 00:52:09;;;;;;;;;8.00;6.67;;;;;23.57;42.38;100979.32;110427;1262;18511;-62
2022/07/16 00:54:36;;;;;;;;;7.33;7.00;;;;;23.57;42.45;100979.99;110499;1261;18845;-58
2022/07/16 00:57:03;;;;;;;;;7.33;7.33;;;;;23.57;42.47;100977.13;110455;1260;27688;-58
2022/07/16 00:59:30;;;;;;;;;6.33;6.33;;;;;23.57;42.37;100978.10;110436;1259;20051;-61
2022/07/16 01:01:58;;;;;;;;;6.00;6.00;;;;;23.57;42.41;100975.49;110517;1261;19155;-60
2022/07/16 01:04:25;;;;;;;;;6.33;6.00;;;;;23.57;42.50;100972.55;110428;1260;21738;-64
2022/07/16 01:06:52;;;;;;;;;6.00;6.00;;;;;23.57;42.58;100974.73;110502;1261;18669;-60
2022/07/16 01:09:20;;;;;;;;;7.00;6.33;;;;;23.57;42.53;100972.51;110479;1260;18831;-58
2022/07/16 01:11:47;;;;;;;;;8.00;6.00;;;;;23.57;42.47;100972.76;110455;1260;19554;-59
2022/07/16 01:14:14;;;;;;;;;7.00;7.00;;;;;23.56;42.47;100967.41;110479;1261;18753;-64
2022/07/16 01:16:41;;;;;;;;;7.00;7.00;;;;;23.56;42.50;100971.54;110475;1260;18772;-61
2022/07/16 01:19:09;;;;;;;;;8.00;7.67;;;;;23.56;42.48;100968.88;110478;1261;19501;-60
2022/07/16 01:21:36;;;;;;;;;9.33;7.33;;;;;23.55;42.46;100968.92;110531;1261;18460;-61
2022/07/16 01:24:03;;;;;;;;;8.00;7.00;;;;;23.55;42.58;100967.82;110480;1260;22508;-63
2022/07/16 01:26:30;;;;;;;;;9.33;9.33;;;;;23.56;42.44;100967.06;110467;1261;19596;-65
2022/07/16 01:28:58;;;;;;;;;6.00;6.00;;;;;23.56;42.68;100966.69;110431;1260;19236;-59
2022/07/16 01:31:25;;;;;;;;;7.33;7.00;;;;;23.56;42.43;100961.73;110572;1259;18864;-62
2022/07/16 01:36:33;;;;;;;;;10.33;7.67;;;;;23.56;42.50;100959.53;110516;1261;18526;-64
2022/07/16 01:39:00;;;;;;;;;8.00;7.50;;;;;23.55;42.44;100961.13;110481;1261;22527;-64
2022/07/16 01:41:28;;;;;;;;;7.00;7.00;;;;;23.56;42.44;100958.65;110499;1259;19599;-63
2022/07/16 01:43:55;;;;;;;;;9.33;7.00;;;;;23.56;42.37;100956.59;110471;1261;18431;-62
2022/07/16 01:46:22;;;;;;;;;8.00;7.00;;;;;23.56;42.32;100951.45;110472;1259;19017;-63
2022/07/16 01:48:50;;;;;;;;;10.00;8.00;;;;;23.57;42.41;100947.75;110494;1259;19568;-62
2022/07/16 01:51:17;;;;;;;;;8.00;7.50;;;;;23.57;42.31;100944.64;110530;1261;18644;-64
2022/07/16 01:53:44;;;;;;;;;8.00;8.00;;;;;23.57;42.39;100939.00;110481;1260;19043;-64
2022/07/16 01:56:11;;;;;;;;;7.00;7.00;;;;;23.57;42.32;100937.48;110475;1261;19659;-63
2022/07/16 01:58:39;;;;;;;;;10.00;7.00;;;;;23.58;42.34;100931.55;110483;1260;18485;-63
2022/07/16 02:01:06;;;;;;;;;8.00;7.67;;;;;23.58;42.25;100928.61;110464;1261;19101;-62
2022/07/16 02:03:33;;;;;;;;;7.00;7.00;;;;;23.57;42.64;100925.78;110499;1261;20079;-61
2022/07/16 02:06:00;;;;;;;;;8.00;7.33;;;;;23.57;42.38;100927.67;110496;1260;18778;-63
2022/07/16 02:08:28;;;;;;;;;8.00;7.33;;;;;23.56;42.45;100924.26;110428;1261;18923;-62
2022/07/16 02:10:55;;;;;;;;;9.33;8.00;;;;;23.56;42.39;100925.56;110467;1259;19433;-64
2022/07/16 02:13:22;;;;;;;;;8.00;8.00;;;;;23.56;42.35;100923.96;110500;1261;18479;-63
2022/07/16 02:15:50;;;;;;;;;7.67;7.00;;;;;23.56;42.37;100923.63;110515;1259;22658;-62
2022/07/16 02:18:17;;;;;;;;;9.33;9.33;;;;;23.56;42.30;100922.45;110484;1261;19767;-62
2022/07/16 02:20:44;;;;;;;;;7.00;7.00;;;;;23.55;42.39;100921.48;110465;1261;23987;-63
2022/07/16 02:23:11;;;;;;;;;7.00;7.00;;;;;23.56;42.43;100921.23;110489;1261;18920;-64
2022/07/16 02:25:40;;;;;;;;;7.00;7.00;;;;;23.56;42.35;100921.52;110460;1260;21715;-64
2022/07/16 02:28:07;;;;;;;;;10.33;9.33;;;;;23.57;42.38;100922.20;110483;1259;18518;-63
2022/07/16 02:30:34;;;;;;;;;9.33;8.67;;;;;23.57;42.36;100920.10;110513;1261;18938;-63
2022/07/16 02:33:01;;;;;;;;;7.00;7.00;;;;;23.58;42.33;100920.64;110472;1260;19495;-62
2022/07/16 02:35:29;;;;;;;;;7.00;7.00;;;;;23.57;42.38;100913.79;110462;1261;18304;-63
2022/07/16 02:37:56;;;;;;;;;10.00;8.00;;;;;23.57;42.41;100916.73;110511;1261;18761;-61
2022/07/16 02:40:23;;;;;;;;;10.00;8.00;;;;;23.57;42.33;100919.42;110460;1260;19612;-64
2022/07/16 02:42:50;;;;;;;;;10.00;10.00;;;;;23.58;42.39;100918.63;110466;1261;18697;-63
2022/07/16 02:45:18;;;;;;;;;8.00;8.00;;;;;23.59;42.41;100919.56;110501;1261;19154;-63
2022/07/16 02:47:45;;;;;;;;;6.33;6.00;;;;;23.59;42.37;100918.63;110463;1261;19835;-65
2022/07/16 02:50:13;;;;;;;;;8.00;7.00;;;;;23.58;42.37;100912.91;110468;1261;19064;-64
2022/07/16 02:52:40;;;;;;;;;7.00;7.00;;;;;23.58;42.44;100909.25;110465;1260;18777;-63
2022/07/16 02:55:08;;;;;;;;;8.00;7.00;;;;;23.57;42.36;100907.90;110497;1261;19585;-64
2022/07/16 02:57:35;;;;;;;;;6.00;6.00;;;;;23.58;42.23;100906.55;110551;1261;18546;-63
2022/07/16 03:00:03;;;;;;;;;7.50;7.50;;;;;23.58;42.33;100909.24;110481;1260;19063;-63
2022/07/16 03:02:30;;;;;;;;;7.00;7.00;;;;;23.58;42.33;100905.41;110498;1259;21040;-62
2022/07/16 03:04:57;;;;;;;;;8.00;7.00;;;;;23.58;42.35;100907.95;110479;1261;18429;-63
2022/07/16 03:07:24;;;;;;;;;6.33;6.00;;;;;23.58;42.23;100901.76;110472;1260;18791;-63
2022/07/16 03:09:52;;;;;;;;;7.00;7.00;;;;;23.58;42.42;100897.84;110500;1261;19555;-61
2022/07/16 03:12:19;;;;;;;;;7.00;6.33;;;;;23.57;42.35;100901.50;110475;1261;18519;-63
2022/07/16 03:14:46;;;;;;;;;8.00;8.00;;;;;23.57;42.41;100904.31;110486;1261;18863;-62
2022/07/16 03:17:13;;;;;;;;;6.33;6.00;;;;;23.57;42.34;100906.30;110486;1260;21118;-63
2022/07/16 03:19:41;;;;;;;;;6.67;6.67;;;;;23.57;42.33;100905.88;110494;1259;18457;-64
2022/07/16 03:22:08;;;;;;;;;6.00;6.00;;;;;23.58;42.24;100906.97;110445;1261;18746;-63
2022/07/16 03:24:36;;;;;;;;;7.00;6.00;;;;;23.57;42.22;100903.73;110530;1261;19407;-61
2022/07/16 03:27:03;;;;;;;;;10.00;7.00;;;;;23.58;42.29;100901.96;110460;1260;20393;-61
2022/07/16 03:29:30;;;;;;;;;6.33;6.00;;;;;23.58;42.30;100902.17;110466;1260;22511;-64
2022/07/16 03:31:57;;;;;;;;;8.00;8.00;;;;;23.59;42.28;100905.51;110476;1261;22518;-64
2022/07/16 03:34:25;;;;;;;;;7.33;7.00;;;;;23.58;42.34;100908.15;110509;1259;18519;-65
2022/07/16 03:36:52;;;;;;;;;7.67;7.00;;;;;23.57;42.19;100905.54;110475;1261;21483;-61
2022/07/16 03:39:19;;;;;;;;;6.33;6.33;;;;;23.58;42.40;100907.69;110493;1260;20831;-61
2022/07/16 03:41:46;;;;;;;;;7.67;7.67;;;;;23.59;42.31;100903.95;110486;1259;22117;-61
2022/07/16 03:44:14;;;;;;;;;7.50;7.00;;;;;23.58;42.31;100904.53;110482;1261;18889;-62
2022/07/16 03:46:41;;;;;;;;;7.50;7.00;;;;;23.58;42.30;100903.19;110476;1261;19486;-61
2022/07/16 03:49:08;;;;;;;;;10.00;10.00;;;;;23.59;42.17;100900.25;110494;1260;20364;-63
2022/07/16 03:51:35;;;;;;;;;7.00;6.33;;;;;23.59;42.22;100895.48;110479;1260;22476;-63
2022/07/16 03:54:03;;;;;;;;;7.33;7.33;;;;;23.58;42.36;100898.69;110474;1261;19806;-62
2022/07/16 03:56:30;;;;;;;;;6.33;6.33;;;;;23.58;42.24;100895.19;110490;1260;23318;-64
2022/07/16 03:58:57;;;;;;;;;10.00;8.67;;;;;23.58;42.15;100897.55;110480;1261;19020;-63
2022/07/16 04:01:24;;;;;;;;;6.33;6.33;;;;;23.59;42.28;100899.27;110483;1261;19498;-62
2022/07/16 04:03:52;;;;;;;;;8.00;8.00;;;;;23.59;42.25;100898.15;110480;1259;19821;-62
2022/07/16 04:06:19;;;;;;;;;8.00;8.00;;;;;23.60;42.32;100894.66;110489;1261;19047;-64
2022/07/16 04:08:47;;;;;;;;;7.33;7.00;;;;;23.60;42.30;100891.90;110489;1260;19600;-63
2022/07/16 04:11:14;;;;;;;;;8.00;7.67;;;;;23.61;42.30;100886.14;110501;1261;18478;-62
2022/07/16 04:13:41;;;;;;;;;6.00;6.00;;;;;23.60;42.25;100884.36;110445;1260;19486;-62
2022/07/16 04:16:09;;;;;;;;;10.00;8.00;;;;;23.60;42.17;100882.23;110464;1260;19498;-63
2022/07/16 04:18:36;;;;;;;;;7.00;7.00;;;;;23.61;42.25;100878.86;110501;1260;21781;-63
2022/07/16 04:21:04;;;;;;;;;8.00;7.33;;;;;23.61;42.37;100875.34;110521;1262;18841;-63
2022/07/16 04:23:31;;;;;;;;;10.00;8.00;;;;;23.61;42.19;100875.17;110441;1261;19649;-64
2022/07/16 04:25:59;;;;;;;;;10.00;8.00;;;;;23.61;42.32;100867.67;110480;1261;18587;-64
2022/07/16 04:28:26;;;;;;;;;8.00;7.67;;;;;23.61;42.34;100861.45;110435;1260;21251;-63
2022/07/16 04:30:53;;;;;;;;;6.00;6.00;;;;;23.62;42.25;100861.55;110454;1261;19482;-63
2022/07/16 04:33:20;;;;;;;;;8.00;7.00;;;;;23.63;42.16;100862.95;110519;1261;18957;-64
2022/07/16 04:35:49;;;;;;;;;8.00;7.67;;;;;23.63;42.22;100862.66;110490;1260;18687;-64
2022/07/16 04:38:16;;;;;;;;;7.00;6.00;;;;;23.64;42.18;100860.36;110454;1260;19476;-63
2022/07/16 04:40:43;;;;;;;;;10.00;7.00;;;;;23.64;42.22;100860.05;110476;1261;18495;-64
2022/07/16 04:43:11;;;;;;;;;7.00;7.00;;;;;23.66;42.28;100856.20;110469;1260;19089;-63
2022/07/16 04:45:38;;;;;;;;;6.33;6.33;;;;;23.66;42.20;100852.88;110528;1261;22104;-63
2022/07/16 04:48:05;;;;;;;;;8.00;8.00;;;;;23.67;42.17;100856.44;110473;1259;18519;-63
2022/07/16 04:50:33;;;;;;;;;8.67;7.00;;;;;23.67;42.23;100852.91;110485;1260;18998;-64
2022/07/16 04:53:00;;;;;;;;;7.00;7.00;;;;;23.67;42.19;100854.55;110501;1261;19813;-64
2022/07/16 04:55:27;;;;;;;;;7.33;7.00;;;;;23.66;42.25;100855.23;110440;1260;18371;-63
2022/07/16 04:57:55;;;;;;;;;10.00;9.33;;;;;23.66;42.26;100848.95;110497;1260;25130;-63
2022/07/16 05:00:22;;;;;;;;;8.00;7.00;;;;;23.66;42.42;100851.30;110515;1261;19818;-63
2022/07/16 05:02:59;;;;;;;;;10.00;7.00;;;;;23.67;42.27;100853.03;110490;1260;18852;-63
2022/07/16 05:05:26;;;;;;;;;11.67;10.67;;;;;23.69;42.41;100849.16;110470;1262;18654;-63
2022/07/16 05:07:53;;;;;;;;;8.00;8.00;;;;;23.71;42.42;100844.00;110495;1262;19584;-64
2022/07/16 05:10:21;;;;;;;;;8.00;8.00;;;;;23.71;42.56;100845.02;110473;1260;19030;-63
2022/07/16 05:12:48;;;;;;;;;8.67;8.00;;;;;23.73;42.94;100844.55;110362;1260;18873;-61
2022/07/16 05:15:15;;;;;;;;;7.00;7.00;;;;;23.75;43.01;100846.67;110389;1260;19599;-63
2022/07/16 05:17:42;;;;;;;;;7.33;7.00;;;;;23.79;43.40;100848.98;110416;1260;18438;-64
2022/07/16 05:20:09;;;;;;;;;7.67;7.67;;;;;23.77;42.95;100846.80;110466;1261;20221;-62
2022/07/16 05:22:37;;;;;;;;;8.00;7.67;;;;;23.69;42.96;100843.99;110498;1259;19556;-65
2022/07/16 05:25:04;;;;;;;;;7.00;7.00;;;;;23.67;42.86;100838.30;110528;1259;22369;-64
2022/07/16 05:27:31;;;;;;;;;7.33;7.33;;;;;23.66;43.03;100836.93;110521;1261;18846;-63
2022/07/16 05:29:58;;;;;;;;;11.00;10.00;;;;;23.70;42.97;100837.14;110494;1259;19608;-65
2022/07/16 05:32:26;;;;;;;;;7.33;7.33;;;;;23.72;42.97;100835.52;110477;1259;19056;-64
2022/07/16 05:34:53;;;;;;;;;8.00;7.00;;;;;23.72;42.80;100829.33;110465;1259;18802;-63
2022/07/16 05:37:20;;;;;;;;;7.33;7.33;;;;;23.75;42.59;100824.19;110450;1259;22933;-63
2022/07/16 05:39:47;;;;;;;;;7.00;7.00;;;;;23.79;42.83;100816.98;110511;1259;18435;-63
2022/07/16 05:42:15;;;;;;;;;10.00;9.33;;;;;23.80;42.71;100820.45;110494;1261;18852;-64
2022/07/16 05:44:42;;;;;;;;;8.00;6.00;;;;;23.80;42.76;100819.02;110466;1261;19549;-62
2022/07/16 05:47:09;;;;;;;;;6.33;6.33;;;;;23.80;42.69;100817.84;110488;1261;19199;-64
2022/07/16 05:49:36;;;;;;;;;7.00;6.00;;;;;23.81;42.65;100818.34;110516;1259;21466;-63
2022/07/16 05:52:04;;;;;;;;;8.00;7.00;;;;;23.78;42.62;100813.35;110521;1258;19427;-64
2022/07/16 05:54:31;;;;;;;;;6.67;6.00;;;;;23.77;42.58;100813.84;110521;1261;22726;-63
2022/07/16 05:56:58;;;;;;;;;7.00;7.00;;;;;23.79;42.56;100807.39;110486;1261;18690;-62
2022/07/16 05:59:25;;;;;;;;;11.00;11.00;;;;;23.79;42.39;100814.55;110488;1261;19707;-61
2022/07/16 06:01:53;;;;;;;;;9.00;7.00;;;;;23.60;42.39;100812.17;110432;1259;18530;-61
2022/07/16 06:04:20;;;;;;;;;9.33;8.00;;;;;23.16;42.69;100810.21;110418;1259;19033;-63
2022/07/16 06:06:47;;;;;;;;;8.33;8.00;;;;;23.06;43.03;100811.94;110435;1259;22780;-61
2022/07/16 06:09:16;;;;;;;;;7.00;7.00;;;;;23.11;43.05;100806.28;110337;1260;18434;-63
2022/07/16 06:11:43;;;;;;;;;10.00;10.00;;;;;23.08;42.89;100803.52;110261;1259;18703;-61
2022/07/16 06:14:10;;;;;;;;;6.67;6.67;;;;;22.95;43.28;100801.78;110374;1259;19545;-62
2022/07/16 06:16:37;;;;;;;;;7.67;7.00;;;;;22.91;43.42;100797.11;110373;1259;19463;-61
2022/07/16 06:19:05;;;;;;;;;5.00;5.00;;;;;22.96;43.46;100795.83;110222;1259;20416;-61
2022/07/16 06:21:32;;;;;;;;;6.33;6.33;;;;;23.07;43.52;100795.14;110389;1260;21959;-62
2022/07/16 06:23:59;;;;;;;;;5.00;5.00;;;;;23.17;43.43;100790.59;110380;1261;18643;-65
2022/07/16 06:26:26;;;;;;;;;6.33;6.33;;;;;23.21;43.27;100787.77;110452;1261;18940;-64
2022/07/16 06:28:54;;;;;;;;;6.00;6.00;;;;;23.22;43.03;100785.26;110468;1260;19681;-61
2022/07/16 06:31:21;;;;;;;;;5.33;5.33;;;;;23.29;42.96;100782.23;110479;1261;18995;-65
2022/07/16 06:33:48;;;;;;;;;7.00;7.00;;;;;23.39;42.87;100782.39;110467;1261;18722;-63
2022/07/16 06:36:16;;;;;;;;;6.00;6.00;;;;;23.41;42.62;100780.78;110493;1261;19480;-63
2022/07/16 06:38:43;;;;;;;;;8.00;7.00;;;;;23.40;42.61;100777.89;110473;1261;18679;-62
2022/07/16 06:41:10;;;;;;;;;7.00;6.33;;;;;23.29;42.96;100768.55;110470;1260;19668;-63
2022/07/16 06:43:38;;;;;;;;;6.67;6.00;;;;;23.28;42.78;100770.36;110398;1259;19467;-62
2022/07/16 06:46:05;;;;;;;;;6.00;6.00;;;;;23.25;42.67;100765.98;110422;1261;19313;-64
2022/07/16 06:48:33;;;;;;;;;6.33;5.00;;;;;23.37;42.37;100767.43;110392;1259;19036;-62
2022/07/16 06:51:00;;;;;;;;;24.00;21.50;;;;;23.47;42.33;100767.25;110427;1259;19449;-64
2022/07/16 06:53:27;;;;;;;;;11.33;10.00;;;;;23.42;42.03;100764.08;110394;1261;18450;-62
2022/07/16 06:55:55;;;;;;;;;16.50;15.00;;;;;23.48;41.76;100762.63;110397;1261;18834;-61
2022/07/16 06:58:22;;;;;;;;;11.33;11.33;;;;;23.52;41.65;100763.25;110312;1259;19476;-61
2022/07/16 07:00:49;;;;;;;;;10.33;10.33;;;;;23.54;41.67;100759.02;110333;1260;21272;-61
2022/07/16 07:03:16;;;;;;;;;9.00;9.00;;;;;23.61;41.79;100760.25;110358;1261;22267;-62
2022/07/16 07:05:44;;;;;;;;;7.33;7.00;;;;;23.60;41.53;100754.67;110304;1259;19441;-64
2022/07/16 07:08:11;;;;;;;;;7.67;7.00;;;;;23.49;41.48;100754.61;110361;1260;18453;-64
2022/07/16 07:10:38;;;;;;;;;5.00;5.00;;;;;23.46;41.45;100757.17;110384;1261;21023;-65
2022/07/16 07:13:06;;;;;;;;;7.67;7.33;;;;;23.33;41.32;100753.83;110390;1260;19675;-61
2022/07/16 07:15:33;;;;;;;;;3.67;3.00;;;;;23.20;41.19;100750.99;110414;1260;22261;-61
2022/07/16 07:18:00;;;;;;;;;5.00;5.00;;;;;23.11;41.12;100752.49;110305;1260;19067;-62
2022/07/16 07:20:27;;;;;;;;;6.00;3.00;;;;;23.19;40.93;100752.63;110476;1259;20865;-61
2022/07/16 07:22:55;;;;;;;;;5.00;3.00;;;;;23.22;40.75;100752.83;110323;1260;18444;-60
2022/07/16 07:25:22;;;;;;;;;3.00;3.00;;;;;23.13;40.74;100755.71;110463;1261;20111;-61
2022/07/16 07:27:49;;;;;;;;;3.00;3.00;;;;;23.08;40.71;100751.45;110489;1260;22128;-62
2022/07/16 07:30:16;;;;;;;;;5.00;5.00;;;;;23.00;40.45;100753.19;110463;1260;18452;-63
2022/07/16 07:32:44;;;;;;;;;2.67;2.67;;;;;22.81;40.61;100749.23;110478;1261;18769;-63
2022/07/16 07:35:11;;;;;;;;;4.33;4.33;;;;;22.81;40.51;100743.84;110467;1261;19686;-64
2022/07/16 07:37:39;;;;;;;;;3.00;3.00;;;;;22.91;40.57;100743.70;110468;1260;19872;-65
2022/07/16 07:40:06;;;;;;;;;3.00;3.00;;;;;22.85;40.86;100743.02;109433;1260;1321484;-62
2022/07/16 07:42:33;;;;;;;;;3.00;3.00;;;;;22.68;41.03;100741.77;110482;1259;22216;-62
2022/07/16 07:45:01;;;;;;;;;5.00;5.00;;;;;22.72;41.09;100743.14;110498;1261;18528;-65
2022/07/16 07:47:28;;;;;;;;;5.00;5.00;;;;;22.80;40.98;100734.15;110441;1261;22318;-64
2022/07/16 07:49:55;;;;;;;;;5.00;3.00;;;;;22.81;40.91;100735.52;110459;1260;19706;-63
2022/07/16 07:52:23;;;;;;;;;4.33;4.33;;;;;22.56;41.01;100727.07;110377;1260;20286;-63
2022/07/16 07:54:50;;;;;;;;;4.00;4.00;;;;;22.72;41.07;100720.25;110496;1261;18770;-62
2022/07/16 07:57:18;;;;;;;;;3.00;3.00;;;;;22.75;41.02;100717.06;110452;1260;19574;-64
2022/07/16 07:59:45;;;;;;;;;3.00;3.00;;;;;22.93;40.98;100703.98;110469;1260;18609;-63
2022/07/16 08:02:12;;;;;;;;;5.00;3.00;;;;;23.01;40.65;100699.64;110449;1260;18751;-64
2022/07/16 08:04:39;;;;;;;;;3.00;3.00;;;;;22.93;40.57;100692.98;110421;1260;19745;-59
2022/07/16 08:07:07;;;;;;;;;5.33;5.00;;;;;22.99;40.63;100685.73;110357;1260;19934;-63
2022/07/16 08:09:34;;;;;;;;;3.00;3.00;;;;;23.16;40.62;100682.59;110431;1260;18746;-64
2022/07/16 08:12:01;;;;;;;;;2.33;2.33;;;;;23.20;40.67;100684.40;110496;1259;20000;-64
2022/07/16 08:14:28;;;;;;;;;5.00;5.00;;;;;23.05;40.86;100682.92;110499;1260;20070;-63
2022/07/16 08:16:56;;;;;;;;;4.33;4.33;;;;;23.08;41.06;100682.41;110470;1260;18719;-63
2022/07/16 08:19:23;;;;;;;;;3.00;3.00;;;;;23.16;41.34;100670.91;110430;1261;20916;-63
2022/07/16 08:21:50;;;;;;;;;6.00;5.00;;;;;23.23;41.26;100668.86;110505;1260;18864;-61
2022/07/16 08:27:04;;;;;;;;;6.00;5.00;;;;;23.32;41.37;100661.80;110415;1260;19648;-64
2022/07/16 08:29:31;;;;;;;;;3.00;3.00;;;;;23.26;41.49;100665.02;110405;1259;18476;-64
2022/07/16 08:31:59;;;;;;;;;3.00;3.00;;;;;23.24;41.81;100665.29;110430;1260;20308;-64
2022/07/16 08:34:26;;;;;;;;;3.00;3.00;;;;;23.23;41.77;100658.39;110353;1259;22949;-63
2022/07/16 08:36:53;;;;;;;;;5.00;5.00;;;;;23.06;41.64;100656.73;110413;1261;18485;-62
2022/07/16 08:39:20;;;;;;;;;3.00;3.00;;;;;23.08;41.59;100651.81;110214;1259;21342;-62
2022/07/16 08:41:48;;;;;;;;;3.00;3.00;;;;;23.01;41.41;100653.06;110311;1259;19716;-64
2022/07/16 08:44:15;;;;;;;;;3.00;3.00;;;;;22.97;41.50;100645.38;110402;1261;18370;-64
2022/07/16 08:46:42;;;;;;;;;5.00;5.00;;;;;22.98;41.54;100641.52;110299;1261;18616;-63
2022/07/16 08:49:09;;;;;;;;;5.00;5.00;;;;;23.02;41.28;100636.07;110419;1261;20853;-63
2022/07/16 08:51:37;;;;;;;;;5.00;3.00;;;;;23.05;41.37;100640.16;110424;1260;18621;-62
2022/07/16 08:54:04;;;;;;;;;6.00;6.00;;;;;22.98;41.18;100636.52;110329;1259;22980;-63
2022/07/16 08:56:31;;;;;;;;;5.00;5.00;;;;;22.98;41.35;100638.66;110290;1261;19689;-62
2022/07/16 08:58:59;;;;;;;;;7.67;5.33;;;;;22.93;41.67;100647.57;110444;1260;18558;-63
2022/07/16 09:01:29;;;;;;;;;5.00;5.00;;;;;22.82;42.06;100649.77;110486;1261;18859;-63
2022/07/16 09:03:56;;;;;;;;;5.00;5.00;;;;;22.74;42.69;100646.59;110470;1262;19549;-63
2022/07/16 09:06:24;;;;;;;;;6.00;5.00;;;;;22.80;42.75;100642.71;110483;1260;20419;-63
2022/07/16 09:08:51;;;;;;;;;4.00;4.00;;;;;22.77;43.29;100642.59;110476;1259;18846;-63
2022/07/16 09:11:18;;;;;;;;;4.00;4.00;;;;;22.61;44.08;100640.98;110465;1260;19668;-62
2022/07/16 09:13:46;;;;;;;;;3.00;3.00;;;;;22.62;44.08;100635.70;110491;1261;18627;-62
2022/07/16 09:16:13;;;;;;;;;5.00;5.00;;;;;22.64;44.04;100635.80;110442;1261;18840;-56
2022/07/16 09:18:40;;;;;;;;;2.67;2.00;;;;;22.67;44.00;100640.30;110506;1261;19575;-60
2022/07/16 09:21:07;;;;;;;;;5.67;5.67;;;;;22.70;43.93;100642.89;110376;1259;22424;-63
2022/07/16 09:23:35;;;;;;;;;3.00;3.00;;;;;22.70;43.91;100641.02;110449;1262;18890;-63
2022/07/16 09:26:02;;;;;;;;;3.00;3.00;;;;;22.69;43.80;100647.59;110278;1259;20842;-61
2022/07/16 09:28:30;;;;;;;;;3.00;3.00;;;;;22.57;43.73;100651.98;110401;1261;18401;-63
2022/07/16 09:30:57;;;;;;;;;3.00;3.00;;;;;22.58;43.90;100653.43;110471;1260;18754;-62
2022/07/16 09:33:25;;;;;;;;;5.00;3.00;;;;;22.48;44.31;100663.84;110492;1260;19672;-63
2022/07/16 09:35:52;;;;;;;;;5.00;5.00;;;;;22.52;44.76;100669.33;110480;1261;18575;-63
2022/07/16 09:38:19;;;;;;;;;6.00;6.00;;;;;22.40;45.40;100670.14;110474;1262;20446;-64
2022/07/16 09:40:46;;;;;;;;;5.67;5.67;;;;;22.33;45.90;100666.04;110476;1261;19750;-63
2022/07/16 09:43:14;;;;;;;;;5.00;5.00;;;;;22.29;46.31;100663.11;110496;1262;18485;-63
2022/07/16 09:45:41;;;;;;;;;6.00;6.00;;;;;22.30;46.60;100657.27;110477;1260;22836;-62
2022/07/16 09:48:09;;;;;;;;;5.00;5.00;;;;;22.32;46.78;100662.40;110487;1260;19584;-60
2022/07/16 09:50:36;;;;;;;;;15.67;13.67;;;;;22.25;47.09;100664.48;110445;1260;18446;-64
2022/07/16 09:53:03;;;;;;;;;11.33;9.33;;;;;22.28;47.39;100668.02;110472;1261;18897;-65
2022/07/16 09:55:30;;;;;;;;;6.67;6.33;;;;;22.25;47.88;100673.45;110498;1261;19606;-63
2022/07/16 09:57:58;;;;;;;;;7.00;7.00;;;;;22.21;48.25;100672.84;110489;1261;18689;-63
2022/07/16 10:00:25;;;;;;;;;7.00;7.00;;;;;22.17;48.86;100679.04;110522;1261;20142;-63
2022/07/16 10:02:52;;;;;;;;;7.00;7.00;;;;;22.13;49.08;100678.18;110436;1261;19631;-61
2022/07/16 10:05:19;;;;;;;;;7.00;6.33;;;;;22.16;49.39;100676.95;110430;1259;18528;-59
2022/07/16 10:07:47;;;;;;;;;13.33;11.00;;;;;22.14;49.44;100678.71;110486;1260;19095;-61
2022/07/16 10:10:14;;;;;;;;;10.67;9.67;;;;;22.15;49.70;100677.61;110453;1259;19704;-61
2022/07/16 10:12:41;;;;;;;;;25.50;24.50;;;;;22.10;49.95;100680.15;110518;1261;21062;-64
2022/07/16 10:15:09;;;;;;;;;13.00;11.00;;;;;22.10;50.16;100678.42;110473;1260;19071;-64
2022/07/16 10:17:36;;;;;;;;;19.33;18.67;;;;;22.04;50.56;100682.62;110471;1261;19532;-64
2022/07/16 10:20:05;;;;;;;;;15.00;13.50;;;;;22.15;50.52;100683.59;110498;1260;18804;-63
2022/07/16 10:22:32;;;;;;;;;12.33;10.00;;;;;22.07;50.89;100685.42;110536;1261;19171;-65
2022/07/16 10:24:59;;;;;;;;;11.00;11.00;;;;;22.05;51.28;100683.50;110497;1260;19507;-63
2022/07/16 10:27:27;;;;;;;;;9.00;9.00;;;;;21.98;51.66;100685.57;110540;1260;18674;-62
2022/07/16 10:29:54;;;;;;;;;8.33;6.00;;;;;21.93;51.82;100680.16;110442;1261;22425;-64
2022/07/16 10:32:30;;;;;;;;;5.67;5.67;;;;;21.97;51.85;100676.98;110473;1261;20974;-63
2022/07/16 10:34:58;;;;;;;;;7.00;6.00;;;;;22.02;51.73;100676.35;110492;1260;19927;-64
2022/07/16 10:37:25;;;;;;;;;5.33;5.00;;;;;22.02;51.67;100670.05;110516;1261;18859;-63
2022/07/16 10:39:52;;;;;;;;;3.00;3.00;;;;;21.84;52.08;100673.64;110516;1261;22450;-63
2022/07/16 10:42:22;;;;;;;;;5.00;5.00;;;;;21.84;52.25;100673.05;110484;1261;19151;-63
2022/07/16 10:44:49;;;;;;;;;6.00;6.00;;;;;21.85;52.38;100671.17;110424;1261;18803;-61
2022/07/16 10:47:17;;;;;;;;;5.00;5.00;;;;;22.03;52.01;100668.61;110360;1259;19696;-62
2022/07/16 10:49:44;;;;;;;;;5.67;5.00;;;;;22.10;52.36;100666.33;110431;1259;18728;-63
2022/07/16 10:52:14;;;;;;;;;4.33;4.33;;;;;22.01;53.08;100661.26;110485;1259;22314;-59
2022/07/16 10:54:41;;;;;;;;;3.00;3.00;;;;;21.93;53.55;100662.15;110478;1260;19762;-62
2022/07/16 10:57:08;;;;;;;;;5.00;5.00;;;;;21.83;53.93;100664.54;110433;1259;18439;-60
2022/07/16 10:59:36;;;;;;;;;5.00;5.00;;;;;21.72;54.35;100667.86;110476;1261;19065;-63
2022/07/16 11:02:03;;;;;;;;;6.00;4.00;;;;;21.72;54.55;100667.48;110487;1258;20120;-63
2022/07/16 11:04:31;;;;;;;;;6.00;6.00;;;;;21.77;54.32;100670.58;110487;1262;18489;-62
2022/07/16 11:06:58;;;;;;;;;6.00;6.00;;;;;21.81;54.34;100670.90;110289;1260;18765;-61
2022/07/16 11:09:26;;;;;;;;;8.00;6.33;;;;;21.83;54.36;100667.91;110517;1260;19599;-64
2022/07/16 11:11:53;;;;;;;;;5.00;5.00;;;;;21.87;54.34;100663.14;110469;1262;18424;-64
2022/07/16 11:14:20;;;;;;;;;5.00;5.00;;;;;22.10;53.86;100662.13;110301;1260;18869;-62
2022/07/16 11:16:47;;;;;;;;;3.00;3.00;;;;;22.45;53.02;100660.56;110423;1261;19569;-64
2022/07/16 11:19:15;;;;;;;;;5.00;4.00;;;;;22.67;52.66;100656.61;110397;1261;18649;-66
2022/07/16 11:21:42;;;;;;;;;6.00;6.00;;;;;22.46;53.06;100659.86;110382;1261;21861;-64